Francisco A. Berra, Argentina
Current Conditions -  °F | °C
As of 7:00 PM on Monday 20 Oct 2014 (Local Time) from SAEZ Reporting Station
Clear Clear  
Wind Chill: 68°   Ceiling: Unl
Heat Index: 68°   Visibility: 6mi
Dew Point: 50°   Wind: 8mph
Humidity: 52%   Direction: 60°ENE
Pressure: 30.09"   Gusts: NA
Location:  35.41°S, 58.82°W
Report Text: SAEZ 202200Z 06007KT CAVOK 20/10 Q1019
Loading
Personal Weather Stations






























Interactive Weather Map New forecast layout! Learn more

10-Day Weather Forecast

Advertisements
Track Severe Weather on mobile